Flight Track Log - Related Links

Times and Time Zones

All times are in EDT time to prevent confusion due to time zone crossing. See the SWA3678 flight status page for this flight to view local times or setup timezone preferences in your user account.


Time Position Orientation Groundspeed Altitude Reporting Facility
EDT Latitude Longitude Course Direction KTS MPH feet Rate Location/Type
Wed 10:26:04 AM 32.7400 -117.2150 295° West 174 200 1,100  Level FlightAware ADS-B
Wed 10:26:24 AM 32.7450 -117.2340 287° West 191 220 1,600 1,636 Climbing FlightAware ADS-B
Wed 10:26:48 AM 32.7510 -117.2600 285° West 209 241 2,300 1,467 Climbing FlightAware ADS-B
Wed 10:27:09 AM 32.7570 -117.2840 287° West 232 267 2,700 1,636 Climbing FlightAware ADS-B
Wed 10:27:21 AM 32.7560 -117.2990 265° West 236 272 3,200 2,842 Climbing FlightAware ADS-B
Wed 10:27:28 AM 32.7530 -117.3080 248° West 236 272 3,600 2,800 Climbing FlightAware ADS-B
Wed 10:27:36 AM 32.7490 -117.3160 239° Southwest 236 272 3,900 2,500 Climbing FlightAware ADS-B
Wed 10:27:40 AM 32.7460 -117.3200 228° Southwest 237 273 4,100 2,143 Climbing FlightAware ADS-B
Wed 10:27:50 AM 32.7360 -117.3280 214° Southwest 245 282 4,400 2,000 Climbing FlightAware ADS-B
Wed 10:27:58 AM 32.7280 -117.3310 198° South 248 285 4,700 2,250 Climbing FlightAware ADS-B
Wed 10:28:06 AM 32.7180 -117.3320 185° South 252 290 5,000 2,500 Climbing FlightAware ADS-B
Wed 10:28:10 AM 32.7140 -117.3310 168° South 252 290 5,200 3,000 Climbing FlightAware ADS-B
Wed 10:28:18 AM 32.7050 -117.3280 164° South 250 288 5,600 3,000 Climbing FlightAware ADS-B
Wed 10:28:26 AM 32.6960 -117.3210 147° Southeast 252 290 6,000 2,625 Climbing FlightAware ADS-B
Wed 10:28:34 AM 32.6900 -117.3130 132° Southeast 253 291 6,300 2,571 Climbing FlightAware ADS-B
Wed 10:28:54 AM 32.6750 -117.2920 130° Southeast 257 296 7,200 2,550 Climbing FlightAware ADS-B
Wed 10:29:14 AM 32.6590 -117.2700 131° Southeast 258 297 8,000 2,571 Climbing FlightAware ADS-B
Wed 10:29:22 AM 32.6540 -117.2610 123° Southeast 259 298 8,400 2,100 Climbing FlightAware ADS-B
Wed 10:29:34 AM 32.6500 -117.2450 107° East 268 308 8,700 1,500 Climbing FlightAware ADS-B
Wed 10:29:58 AM 32.6450 -117.2080 99° East 290 334 9,300 2,143 Climbing FlightAware ADS-B
Wed 10:30:30 AM 32.6390 -117.1590 98° East 291 335 10,700 1,941 Climbing FlightAware ADS-B
Wed 10:31:06 AM 32.6290 -117.0980 101° East 326 375 11,500 1,200 Climbing FlightAware ADS-B
Wed 10:31:40 AM 32.6190 -117.0360 101° East 357 411 12,100 1,543 Climbing FlightAware ADS-B
Wed 10:32:16 AM 32.6130 -116.9710 96° East 367 422 13,300 2,314 Climbing FlightAware ADS-B
Wed 10:32:50 AM 32.6180 -116.8990 85° East 375 432 14,800 2,451 Climbing FlightAware ADS-B
Wed 10:33:27 AM 32.6270 -116.8220 82° East 381 438 16,200 2,421 Climbing FlightAware ADS-B
Wed 10:33:47 AM 32.6440 -116.7840 62° Northeast 389 448 17,100 2,400 Climbing FlightAware ADS-B
Wed 10:34:07 AM 32.6720 -116.7570 39° Northeast 400 460 17,800 2,111 Climbing FlightAware ADS-B
Wed 10:34:41 AM 32.7330 -116.7300 20° North 408 470 19,000 1,739 Climbing FlightAware ADS-B
Wed 10:35:16 AM 32.7910 -116.6960 26° Northeast 419 482 19,800 1,500 Climbing FlightAware ADS-B
Wed 10:35:53 AM 32.8570 -116.6540 28° Northeast 429 494 20,800 1,644 Climbing FlightAware ADS-B
Wed 10:36:29 AM 32.9200 -116.6140 28° Northeast 436 502 21,800 1,760 Climbing FlightAware ADS-B
Wed 10:37:08 AM 32.9920 -116.5690 28° Northeast 440 506 23,000 1,658 Climbing FlightAware ADS-B
Wed 10:37:45 AM 33.0570 -116.5270 28° Northeast 443 510 23,900 1,437 Climbing FlightAware ADS-B
Wed 10:38:19 AM 33.1210 -116.4860 28° Northeast 451 519 24,700 1,183 Climbing FlightAware ADS-B
Wed 10:38:56 AM 33.1900 -116.4420 28° Northeast 460 529 25,300 1,000 Climbing FlightAware ADS-B
Wed 10:39:31 AM 33.2550 -116.4000 28° Northeast 468 539 25,900 1,075 Climbing FlightAware ADS-B
Wed 10:40:03 AM 33.3150 -116.3620 28° Northeast 472 543 26,500 1,130 Climbing FlightAware ADS-B
Wed 10:40:40 AM 33.3890 -116.3150 28° Northeast 477 549 27,200 1,217 Climbing FlightAware ADS-B
Wed 10:41:12 AM 33.4520 -116.2740 28° Northeast 478 550 27,900 1,183 Climbing FlightAware ADS-B
Wed 10:41:51 AM 33.5270 -116.2250 29° Northeast 482 555 28,600 1,125 Climbing FlightAware ADS-B
Wed 10:42:32 AM 33.5990 -116.1590 37° Northeast 481 554 29,400 1,184 Climbing FlightAware ADS-B
Wed 10:43:07 AM 33.6540 -116.0910 46° Northeast 480 552 30,100 1,043 Climbing FlightAware ADS-B
Wed 10:43:41 AM 33.7050 -116.0270 46° Northeast 483 556 30,600 857 Climbing FlightAware ADS-B
Wed 10:44:24 AM 33.7730 -115.9420 46° Northeast 488 562 31,200 581 Climbing FlightAware ADS-B
Wed 10:45:14 AM 33.8430 -115.8550 46° Northeast 489 563 31,500 918 Climbing FlightAware ADS-B
Wed 10:45:49 AM 33.9050 -115.7760 47° Northeast 491 565 32,500 1,565 Climbing FlightAware ADS-B
Wed 10:46:00 AM 33.9210 -115.7520 51° Northeast 488 562 32,700 1,000 Climbing FlightAware ADS-B
Wed 10:46:37 AM 33.9690 -115.6680 55° Northeast 487 560 33,300 1,054 Climbing FlightAware ADS-B
Wed 10:47:14 AM 34.0160 -115.5860 55° Northeast 484 557 34,000 769 Climbing FlightAware ADS-B
Wed 10:47:55 AM 34.0640 -115.5050 54° Northeast 482 555 34,300 896 Climbing FlightAware ADS-B
Wed 10:48:21 AM 34.1140 -115.4530 41° Northeast 483 556 35,000 1,235 Climbing FlightAware ADS-B
Wed 10:48:29 AM 34.1270 -115.4370 46° Northeast 484 557 35,000  Level FlightAware ADS-B
Wed 10:49:06 AM 34.1860 -115.3650 45° Northeast 485 558 35,000  Level FlightAware ADS-B
Wed 10:49:37 AM 34.2340 -115.3060 45° Northeast 485 558 35,000  Level FlightAware ADS-B
Wed 10:50:11 AM 34.2880 -115.2390 46° Northeast 484 557 35,000  Level FlightAware ADS-B
Wed 10:50:48 AM 34.3450 -115.1680 46° Northeast 484 557 35,000  Level FlightAware ADS-B
Wed 10:51:27 AM 34.4010 -115.0990 45° Northeast 483 556 35,000  Level FlightAware ADS-B
Wed 10:52:06 AM 34.4680 -115.0150 46° Northeast 480 552 35,000  Level FlightAware ADS-B
Wed 10:52:40 AM 34.5190 -114.9510 46° Northeast 480 552 35,000  Level FlightAware ADS-B
Wed 10:53:14 AM 34.5720 -114.8850 46° Northeast 479 551 35,000  Level FlightAware ADS-B
Wed 10:53:50 AM 34.6280 -114.8160 45° Northeast 479 551 35,000  Level FlightAware ADS-B
Wed 10:54:28 AM 34.6860 -114.7430 46° Northeast 478 550 35,000  Level FlightAware ADS-B
Wed 10:55:00 AM 34.7360 -114.6800 46° Northeast 478 550 35,000  Level FlightAware ADS-B
Wed 10:55:35 AM 34.7880 -114.6140 46° Northeast 479 551 35,000  Level FlightAware ADS-B
Wed 10:56:12 AM 34.8450 -114.5420 46° Northeast 480 552 35,000  Level FlightAware ADS-B
Wed 10:56:45 AM 34.8930 -114.4810 46° Northeast 479 551 35,000  Level FlightAware ADS-B
Wed 10:57:20 AM 34.9490 -114.4120 45° Northeast 480 552 35,000  Level FlightAware ADS-B
Wed 10:57:57 AM 35.0050 -114.3400 46° Northeast 480 552 35,000  Level FlightAware ADS-B
Wed 10:58:30 AM 35.0560 -114.2750 46° Northeast 482 555 35,000  Level FlightAware ADS-B
Wed 10:59:06 AM 35.1150 -114.2010 46° Northeast 483 556 35,000  Level FlightAware ADS-B
Wed 10:59:43 AM 35.1710 -114.1290 46° Northeast 483 556 35,000  Level FlightAware ADS-B
Wed 11:00:15 AM 35.2210 -114.0650 46° Northeast 483 556 35,000  Level FlightAware ADS-B
Wed 11:00:52 AM 35.2780 -113.9910 47° Northeast 481 554 35,000  Level FlightAware ADS-B
Wed 11:01:27 AM 35.3310 -113.9230 46° Northeast 481 554 35,000  Level FlightAware ADS-B
Wed 11:02:00 AM 35.3820 -113.8590 46° Northeast 481 554 35,000  Level FlightAware ADS-B
Wed 11:02:36 AM 35.4370 -113.7870 47° Northeast 480 552 35,000  Level FlightAware ADS-B
Wed 11:03:13 AM 35.4940 -113.7140 46° Northeast 479 551 35,000  Level FlightAware ADS-B
Wed 11:03:44 AM 35.5400 -113.6540 47° Northeast 479 551 35,000  Level FlightAware ADS-B
Wed 11:04:18 AM 35.5920 -113.5870 46° Northeast 478 550 35,000  Level FlightAware ADS-B
Wed 11:04:57 AM 35.6460 -113.5020 52° Northeast 473 544 35,000  Level FlightAware ADS-B
Wed 11:05:32 AM 35.6850 -113.4240 58° Northeast 472 543 35,000  Level FlightAware ADS-B
Wed 11:06:07 AM 35.7260 -113.3440 58° Northeast 472 543 35,000  Level FlightAware ADS-B
Wed 11:06:38 AM 35.7620 -113.2710 59° Northeast 472 543 35,000  Level FlightAware ADS-B
Wed 11:07:13 AM 35.8020 -113.1930 58° Northeast 470 541 35,000  Level FlightAware ADS-B
Wed 11:07:47 AM 35.8400 -113.1160 59° Northeast 471 542 35,000  Level FlightAware ADS-B
Wed 11:08:25 AM 35.8830 -113.0300 58° Northeast 470 541 35,000  Level FlightAware ADS-B
Wed 11:09:02 AM 35.9260 -112.9450 58° Northeast 470 541 35,000  Level FlightAware ADS-B
Wed 11:09:37 AM 35.9660 -112.8640 59° Northeast 469 540 35,000  Level FlightAware ADS-B
Wed 11:10:10 AM 36.0030 -112.7900 58° Northeast 470 541 35,000  Level FlightAware ADS-B
Wed 11:10:45 AM 36.0420 -112.7110 59° Northeast 470 541 35,000  Level FlightAware ADS-B
Wed 11:11:03 AM 36.0640 -112.6670 58° Northeast 471 542 35,000  Level FlightAware ADS-B
Wed 11:11:57 AM 36.1250 -112.5430 59° Northeast 470 541 35,000  Level FlightAware ADS-B
Wed 11:12:29 AM 36.1610 -112.4700 59° Northeast 468 539 35,000  Level FlightAware ADS-B
Wed 11:13:01 AM 36.1960 -112.3980 59° Northeast 467 537 35,000  Level FlightAware ADS-B
Wed 11:13:39 AM 36.2390 -112.3100 59° Northeast 466 536 35,000  Level FlightAware ADS-B
Wed 11:14:15 AM 36.2780 -112.2300 59° Northeast 465 535 35,000  Level FlightAware ADS-B
Wed 11:14:45 AM 36.3110 -112.1620 59° Northeast 464 534 35,000  Level FlightAware ADS-B
Wed 11:15:25 AM 36.3560 -112.0700 59° Northeast 463 533 35,000  Level FlightAware ADS-B
Wed 11:16:01 AM 36.3950 -111.9900 59° Northeast 462 532 35,000  Level FlightAware ADS-B
Wed 11:16:34 AM 36.4310 -111.9140 59° Northeast 461 531 35,000  Level FlightAware ADS-B
Wed 11:17:11 AM 36.4730 -111.8280 59° Northeast 460 529 35,000  Level FlightAware ADS-B
Wed 11:17:47 AM 36.5120 -111.7470 59° Northeast 461 531 35,000  Level FlightAware ADS-B
Wed 11:18:19 AM 36.5450 -111.6770 60° Northeast 460 529 35,000  Level FlightAware ADS-B
Wed 11:18:53 AM 36.5840 -111.5960 59° Northeast 460 529 35,000  Level FlightAware ADS-B
Wed 11:19:31 AM 36.6250 -111.5100 59° Northeast 461 531 35,000  Level FlightAware ADS-B
Wed 11:20:04 AM 36.6600 -111.4360 59° Northeast 461 531 35,000  Level FlightAware ADS-B
Wed 11:20:41 AM 36.7010 -111.3510 59° Northeast 460 529 35,000  Level FlightAware ADS-B
Wed 11:21:17 AM 36.7390 -111.2690 60° Northeast 460 529 35,000  Level FlightAware ADS-B
Wed 11:21:51 AM 36.7770 -111.1890 59° Northeast 461 531 35,000  Level FlightAware ADS-B
Wed 11:22:25 AM 36.8140 -111.1120 59° Northeast 461 531 35,000  Level FlightAware ADS-B
Wed 11:23:01 AM 36.8510 -111.0340 59° Northeast 461 531 35,000  Level FlightAware ADS-B
Wed 11:23:35 AM 36.8890 -110.9530 60° Northeast 462 532 35,000  Level FlightAware ADS-B
Wed 11:24:30 AM 36.9440 -110.8370 59° Northeast 462 532 35,000  Level FlightAware ADS-B
Wed 11:25:06 AM 36.9770 -110.7670 59° Northeast 462 532 35,000  Level FlightAware ADS-B
Wed 11:25:43 AM 37.0120 -110.6940 59° Northeast 462 532 35,000  Level FlightAware ADS-B
Wed 11:26:19 AM 37.0460 -110.6240 59° Northeast 462 532 35,000  Level FlightAware ADS-B
Wed 11:26:56 AM 37.0800 -110.5520 59° Northeast 462 532 35,000  Level FlightAware ADS-B
Wed 11:27:32 AM 37.1140 -110.4820 59° Northeast 462 532 35,000  Level FlightAware ADS-B
Wed 11:28:08 AM 37.1480 -110.4110 59° Northeast 462 532 35,000  Level FlightAware ADS-B
Wed 11:28:44 AM 37.1810 -110.3410 59° Northeast 462 532 35,000  Level FlightAware ADS-B
Wed 11:29:20 AM 37.2150 -110.2710 59° Northeast 462 532 35,000  Level FlightAware ADS-B
Wed 11:29:57 AM 37.2500 -110.1980 59° Northeast 462 532 35,000  Level FlightAware ADS-B
Wed 11:30:35 AM 37.2850 -110.1240 59° Northeast 462 532 35,000  Level FlightAware ADS-B
Wed 11:30:41 AM 37.5490 -110.1720 352° North 467 537 35,000  Level FlightAware ADS-B
Wed 11:31:15 AM 37.6030 -110.1150 40° Northeast 467 537 35,000  Level FlightAware ADS-B
Wed 11:31:49 AM 37.6530 -110.0620 40° Northeast 467 537 35,000  Level FlightAware ADS-B
Wed 11:32:26 AM 37.7250 -109.9870 39° Northeast 467 537 35,000  Level FlightAware ADS-B
Wed 11:33:02 AM 37.7710 -109.9240 47° Northeast 464 534 35,000  Level FlightAware ADS-B
Wed 11:33:44 AM 37.8160 -109.8200 61° Northeast 462 532 35,000  Level FlightAware ADS-B
Wed 11:34:25 AM 37.8580 -109.7160 63° Northeast 465 535 35,000  Level FlightAware ADS-B
Wed 11:35:01 AM 37.8920 -109.6320 63° Northeast 467 537 35,000  Level FlightAware ADS-B
Wed 11:35:34 AM 37.9260 -109.5470 63° Northeast 468 539 35,000  Level FlightAware ADS-B
Wed 11:36:06 AM 37.9580 -109.4690 62° Northeast 469 540 35,000  Level FlightAware ADS-B
Wed 11:36:46 AM 37.9910 -109.3890 62° Northeast 470 541 35,000  Level FlightAware ADS-B
Wed 11:37:19 AM 38.0290 -109.2940 63° Northeast 471 542 35,000  Level FlightAware ADS-B
Wed 11:37:54 AM 38.0610 -109.2130 63° Northeast 471 542 35,000  Level FlightAware ADS-B
Wed 11:38:28 AM 38.0960 -109.1270 63° Northeast 468 539 35,000  Level FlightAware ADS-B
Wed 11:39:02 AM 38.1320 -109.0370 63° Northeast 466 536 35,000  Level FlightAware ADS-B
Wed 11:39:42 AM 38.1720 -108.9390 63° Northeast 466 536 35,000  Level FlightAware ADS-B
Wed 11:40:15 AM 38.2030 -108.8620 63° Northeast 467 537 35,000  Level FlightAware ADS-B
Wed 11:40:49 AM 38.2370 -108.7770 63° Northeast 467 537 35,000  Level FlightAware ADS-B
Wed 11:41:24 AM 38.2710 -108.6910 63° Northeast 466 536 35,000  Level FlightAware ADS-B
Wed 11:42:02 AM 38.3080 -108.5990 63° Northeast 464 534 35,000  Level FlightAware ADS-B
Wed 11:42:33 AM 38.3340 -108.5340 63° Northeast 464 534 35,000  Level FlightAware ADS-B
Wed 11:43:09 AM 38.3730 -108.4360 63° Northeast 462 532 35,000  Level FlightAware ADS-B
Wed 11:43:45 AM 38.4040 -108.3550 64° Northeast 462 532 35,000  Level FlightAware ADS-B
Wed 11:44:21 AM 38.4380 -108.2690 63° Northeast 460 529 35,000  Level FlightAware ADS-B
Wed 11:44:55 AM 38.4740 -108.1780 63° Northeast 460 529 35,000  Level FlightAware ADS-B
Wed 11:45:31 AM 38.5080 -108.0900 64° Northeast 461 531 35,000  Level FlightAware ADS-B
Wed 11:46:00 AM 38.5420 -108.0270 55° Northeast 466 536 35,000  Level FlightAware ADS-B
Wed 11:46:37 AM 38.5950 -107.9490 49° Northeast 467 537 35,000  Level FlightAware ADS-B
Wed 11:47:22 AM 38.6570 -107.8580 49° Northeast 468 539 35,000  Level FlightAware ADS-B
Wed 11:47:59 AM 38.7040 -107.7870 50° Northeast 469 540 35,000  Level FlightAware ADS-B
Wed 11:48:31 AM 38.7570 -107.7090 49° Northeast 470 541 35,000  Level FlightAware ADS-B
Wed 11:49:05 AM 38.8040 -107.6410 48° Northeast 470 541 35,000  Level FlightAware ADS-B
Wed 11:49:45 AM 38.8620 -107.5540 49° Northeast 471 542 35,000  Level FlightAware ADS-B
Wed 11:50:27 AM 38.9230 -107.4650 49° Northeast 473 544 35,000  Level FlightAware ADS-B
Wed 11:50:58 AM 38.9600 -107.4090 50° Northeast 474 545 35,000  Level FlightAware ADS-B
Wed 11:51:35 AM 39.0210 -107.3190 49° Northeast 475 547 35,000  Level FlightAware ADS-B
Wed 11:52:11 AM 39.0620 -107.2570 50° Northeast 475 547 35,000  Level FlightAware ADS-B
Wed 11:52:33 AM 39.0980 -107.1950 53° Northeast 471 542 35,000  Level FlightAware ADS-B
Wed 11:53:01 AM 39.1190 -107.1320 67° East 468 539 35,000  Level FlightAware ADS-B
Wed 11:53:42 AM 39.1460 -107.0100 74° East 467 537 35,000  Level FlightAware ADS-B
Wed 11:54:16 AM 39.1660 -106.9220 74° East 469 540 35,000  Level FlightAware ADS-B
Wed 11:54:52 AM 39.1870 -106.8260 74° East 469 540 35,000  Level FlightAware ADS-B
Wed 11:55:26 AM 39.2080 -106.7330 74° East 469 540 35,000  Level FlightAware ADS-B
Wed 11:55:59 AM 39.2280 -106.6430 74° East 469 540 35,000  Level FlightAware ADS-B
Wed 11:56:36 AM 39.2480 -106.5550 74° East 469 540 35,000  Level FlightAware ADS-B
Wed 11:57:14 AM 39.2730 -106.4430 74° East 470 541 35,000  Level FlightAware ADS-B
Wed 11:57:54 AM 39.2970 -106.3340 74° East 470 541 35,000  Level FlightAware ADS-B
Wed 11:58:28 AM 39.3170 -106.2410 74° East 470 541 35,000  Level FlightAware ADS-B
Wed 11:59:02 AM 39.3380 -106.1490 74° East 470 541 35,000  Level FlightAware ADS-B
Wed 11:59:38 AM 39.3590 -106.0520 74° East 470 541 35,000  Level FlightAware ADS-B
Wed 12:00:14 PM 39.3800 -105.9540 74° East 470 541 35,000  Level FlightAware ADS-B
Wed 12:00:50 PM 39.4000 -105.8610 74° East 470 541 35,000  Level FlightAware ADS-B
Wed 12:01:30 PM 39.4240 -105.7500 74° East 470 541 35,000  Level FlightAware ADS-B
Wed 12:02:06 PM 39.4450 -105.6520 74° East 469 540 35,000  Level FlightAware ADS-B
Wed 12:02:42 PM 39.4660 -105.5550 74° East 469 540 35,000  Level FlightAware ADS-B
Wed 12:03:14 PM 39.4840 -105.4690 75° East 469 540 35,000  Level FlightAware ADS-B
Wed 12:03:52 PM 39.5060 -105.3650 75° East 469 540 35,000  Level FlightAware ADS-B
Wed 12:04:24 PM 39.5240 -105.2800 75° East 469 540 35,000  Level FlightAware ADS-B
Wed 12:05:00 PM 39.5450 -105.1800 75° East 469 540 35,000  Level FlightAware ADS-B
Wed 12:05:34 PM 39.5640 -105.0890 75° East 469 540 35,000  Level FlightAware ADS-B
Wed 12:06:10 PM 39.5840 -104.9920 75° East 470 541 35,000  Level FlightAware ADS-B
Wed 12:06:47 PM 39.6050 -104.8930 75° East 469 540 35,000  Level FlightAware ADS-B
Wed 12:07:20 PM 39.6230 -104.8030 75° East 469 540 35,000  Level FlightAware ADS-B
Wed 12:07:56 PM 39.6430 -104.7040 75° East 470 541 35,000  Level FlightAware ADS-B
Wed 12:08:32 PM 39.6630 -104.6060 75° East 470 541 35,000  Level FlightAware ADS-B
Wed 12:09:04 PM 39.6810 -104.5180 75° East 470 541 35,000  Level FlightAware ADS-B
Wed 12:09:38 PM 39.6990 -104.4290 75° East 469 540 35,000  Level FlightAware ADS-B
Wed 12:10:15 PM 39.7200 -104.3290 75° East 469 540 35,000  Level FlightAware ADS-B
Wed 12:10:52 PM 39.7400 -104.2260 76° East 468 539 35,000  Level FlightAware ADS-B
Wed 12:11:04 PM 39.7470 -104.1920 75° East 468 539 35,000  Level FlightAware ADS-B
Wed 12:11:58 PM 39.7760 -104.0470 75° East 467 537 35,000  Level FlightAware ADS-B
Wed 12:12:34 PM 39.7950 -103.9500 76° East 466 536 35,000  Level FlightAware ADS-B
Wed 12:13:04 PM 39.8110 -103.8690 76° East 466 536 35,000  Level FlightAware ADS-B
Wed 12:13:46 PM 39.8340 -103.7530 75° East 465 535 35,000  Level FlightAware ADS-B
Wed 12:14:18 PM 39.8510 -103.6670 76° East 465 535 35,000  Level FlightAware ADS-B
Wed 12:14:54 PM 39.8690 -103.5710 76° East 464 534 35,000  Level FlightAware ADS-B
Wed 12:15:28 PM 39.8870 -103.4790 76° East 467 537 35,000 429 Level FlightAware ADS-B
Wed 12:16:04 PM 39.9070 -103.3780 75° East 470 541 35,500 794 Climbing FlightAware ADS-B
Wed 12:16:36 PM 39.9230 -103.2920 76° East 469 540 35,900 609 Climbing FlightAware ADS-B
Wed 12:17:13 PM 39.9400 -103.2030 76° East 466 536 36,200 686 Climbing FlightAware ADS-B
Wed 12:17:46 PM 39.9590 -103.1020 76° East 462 532 36,700 676 Climbing FlightAware ADS-B
Wed 12:18:24 PM 39.9790 -102.9990 76° East 461 531 37,000 243 Climbing FlightAware ADS-B
Wed 12:19:00 PM 39.9970 -102.9020 76° East 461 531 37,000  Level FlightAware ADS-B
Wed 12:19:32 PM 40.0130 -102.8180 76° East 462 532 37,000  Level FlightAware ADS-B
Wed 12:20:18 PM 40.0350 -102.7020 76° East 462 532 37,000  Level FlightAware ADS-B
Wed 12:20:57 PM 40.0520 -102.6130 76° East 462 532 37,000  Level FlightAware ADS-B
Wed 12:21:34 PM 40.0680 -102.5270 76° East 462 532 37,000  Level FlightAware ADS-B
Wed 12:22:11 PM 40.0840 -102.4420 76° East 462 532 37,000  Level FlightAware ADS-B
Wed 12:22:48 PM 40.1000 -102.3570 76° East 462 532 37,000  Level FlightAware ADS-B
Wed 12:23:26 PM 40.1170 -102.2690 76° East 462 532 37,000  Level FlightAware ADS-B
Wed 12:24:02 PM 40.1330 -102.1860 76° East 462 532 37,000  Level FlightAware ADS-B
Wed 12:24:38 PM 40.1490 -102.1030 76° East 462 532 37,000  Level FlightAware ADS-B
Wed 12:25:12 PM 40.1640 -102.0250 76° East 462 532 37,000  Level FlightAware ADS-B
Wed 12:25:48 PM 40.1790 -101.9420 77° East 462 532 37,000  Level FlightAware ADS-B
Wed 12:26:24 PM 40.1950 -101.8590 76° East 462 532 37,000  Level FlightAware ADS-B
Wed 12:27:01 PM 40.2120 -101.7730 75° East 462 532 37,000  Level FlightAware ADS-B
Wed 12:27:39 PM 40.2280 -101.6860 76° East 462 532 37,000  Level FlightAware ADS-B
Wed 12:28:15 PM 40.2440 -101.6020 76° East 462 532 37,000  Level FlightAware ADS-B
Wed 12:28:49 PM 40.2590 -101.5240 76° East 462 532 37,000  Level FlightAware ADS-B
Wed 12:29:25 PM 40.2750 -101.4410 76° East 462 532 37,000  Level FlightAware ADS-B
Wed 12:29:49 PM 40.2850 -101.3850 75° East 462 532 37,000  Level FlightAware ADS-B
Wed 12:30:15 PM 40.3222 -101.0811 76° East 460 529 37,000  Level Denver Center
Wed 12:31:17 PM 40.3481 -100.9247 78° East 462 532 37,000  Level Denver Center
Wed 12:32:19 PM 40.3781 -100.7417 78° East 462 532 37,000  Level Denver Center
Wed 12:33:21 PM 40.4047 -100.5850 77° East 463 533 37,000  Level Denver Center
Wed 12:34:23 PM 40.4408 -100.4067 75° East 460 529 37,000  Level Denver Center
Wed 12:35:25 PM 40.5069 -100.2756 75° East 456 525 37,000  Level Denver Center
Wed 12:36:28 PM 40.5847 -100.1233 56° Northeast 452 520 37,000  Level Denver Center
Wed 12:37:30 PM 40.6494 -99.9933 57° Northeast 447 514 37,000  Level Denver Center
Wed 12:38:32 PM 40.7261 -99.8419 56° Northeast 446 513 37,000  Level Denver Center
Wed 12:44:38 PM 41.0950 -98.9450 56° Northeast 463 533 37,000  Level FlightAware ADS-B
Wed 12:45:20 PM 41.1170 -98.8430 74° East 463 533 37,000  Level FlightAware ADS-B
Wed 12:45:54 PM 41.1330 -98.7420 78° East 467 537 37,000  Level FlightAware ADS-B
Wed 12:46:23 PM 41.1410 -98.6560 83° East 468 539 37,000  Level FlightAware ADS-B
Wed 12:47:08 PM 41.1520 -98.5260 84° East 466 536 37,000  Level FlightAware ADS-B
Wed 12:47:49 PM 41.1610 -98.4110 84° East 470 541 37,000  Level FlightAware ADS-B
Wed 12:48:20 PM 41.1680 -98.3320 83° East 471 542 37,000  Level FlightAware ADS-B
Wed 12:48:58 PM 41.1770 -98.2210 84° East 473 544 37,000  Level FlightAware ADS-B
Wed 12:49:28 PM 41.1840 -98.1340 84° East 474 545 37,000  Level FlightAware ADS-B
Wed 12:50:08 PM 41.1940 -98.0060 84° East 476 548 37,000  Level FlightAware ADS-B
Wed 12:50:43 PM 41.2020 -97.9060 84° East 477 549 37,000  Level FlightAware ADS-B
Wed 12:51:13 PM 41.2080 -97.8220 85° East 478 550 37,000  Level FlightAware ADS-B
Wed 12:51:48 PM 41.2160 -97.7160 84° East 478 550 37,000  Level FlightAware ADS-B
Wed 12:52:28 PM 41.2250 -97.6020 84° East 478 550 37,000  Level FlightAware ADS-B
Wed 12:53:03 PM 41.2330 -97.4970 84° East 477 549 37,000  Level FlightAware ADS-B
Wed 12:53:38 PM 41.2390 -97.4060 85° East 476 548 37,000  Level FlightAware ADS-B
Wed 12:54:13 PM 41.2480 -97.2940 84° East 475 547 37,000  Level FlightAware ADS-B
Wed 12:54:43 PM 41.2540 -97.2070 85° East 476 548 37,000  Level FlightAware ADS-B
Wed 12:55:18 PM 41.2610 -97.1070 85° East 475 547 37,000  Level FlightAware ADS-B
Wed 12:55:58 PM 41.2690 -96.9910 85° East 475 547 37,000  Level FlightAware ADS-B
Wed 12:56:33 PM 41.2760 -96.8890 85° East 475 547 37,000  Level FlightAware ADS-B
Wed 12:57:08 PM 41.2830 -96.7860 85° East 475 547 37,000  Level FlightAware ADS-B
Wed 12:57:43 PM 41.2900 -96.6880 85° East 476 548 37,000  Level FlightAware ADS-B
Wed 12:58:13 PM 41.2960 -96.5990 85° East 476 548 37,000  Level FlightAware ADS-B
Wed 12:58:53 PM 41.3040 -96.4800 85° East 476 548 37,000  Level FlightAware ADS-B
Wed 12:59:28 PM 41.3100 -96.3790 85° East 476 548 37,000  Level FlightAware ADS-B
Wed 01:00:08 PM 41.3180 -96.2640 85° East 477 549 37,000  Level FlightAware ADS-B
Wed 01:00:43 PM 41.3240 -96.1650 85° East 478 550 37,000  Level FlightAware ADS-B
Wed 01:01:18 PM 41.3310 -96.0570 85° East 480 552 37,000  Level FlightAware ADS-B
Wed 01:01:53 PM 41.3370 -95.9580 85° East 482 555 37,000  Level FlightAware ADS-B
Wed 01:02:28 PM 41.3430 -95.8530 86° East 483 556 37,000  Level FlightAware ADS-B
Wed 01:03:03 PM 41.3490 -95.7480 86° East 486 559 37,000  Level FlightAware ADS-B
Wed 01:03:38 PM 41.3550 -95.6500 85° East 487 560 37,000  Level FlightAware ADS-B
Wed 01:04:22 PM 41.3630 -95.5080 86° East 489 563 37,000  Level FlightAware ADS-B
Wed 01:04:59 PM 41.3700 -95.3970 85° East 490 564 37,000  Level FlightAware ADS-B
Wed 01:05:32 PM 41.3750 -95.3010 86° East 490 564 37,000  Level FlightAware ADS-B
Wed 01:06:05 PM 41.3800 -95.2070 86° East 489 563 37,000  Level FlightAware ADS-B
Wed 01:06:43 PM 41.3860 -95.0880 86° East 487 560 37,000  Level FlightAware ADS-B
Wed 01:07:15 PM 41.3910 -95.0030 85° East 486 559 37,000  Level FlightAware ADS-B
Wed 01:07:50 PM 41.3960 -94.9030 86° East 486 559 37,000  Level FlightAware ADS-B
Wed 01:08:30 PM 41.4020 -94.8010 85° East 486 559 37,000  Level FlightAware ADS-B
Wed 01:09:06 PM 41.4060 -94.7100 87° East 486 559 37,000  Level FlightAware ADS-B
Wed 01:09:42 PM 41.4110 -94.6180 86° East 486 559 37,000  Level FlightAware ADS-B
Wed 01:10:19 PM 41.4190 -94.4440 86° East 484 557 37,000  Level FlightAware ADS-B
Wed 01:10:57 PM 41.4240 -94.3300 87° East 484 557 37,000  Level FlightAware ADS-B
Wed 01:11:28 PM 41.4280 -94.2560 86° East 484 557 37,000  Level FlightAware ADS-B
Wed 01:12:02 PM 41.4330 -94.1360 87° East 485 558 37,000  Level FlightAware ADS-B
Wed 01:12:35 PM 41.4380 -94.0400 86° East 485 558 37,000  Level FlightAware ADS-B
Wed 01:13:18 PM 41.4430 -93.9100 87° East 485 558 37,000  Level FlightAware ADS-B
Wed 01:13:50 PM 41.4470 -93.8160 87° East 484 557 37,000  Level FlightAware ADS-B
Wed 01:14:28 PM 41.4520 -93.7020 87° East 483 556 37,000  Level FlightAware ADS-B
Wed 01:15:03 PM 41.4560 -93.6000 87° East 481 554 37,000  Level FlightAware ADS-B
Wed 01:15:40 PM 41.4600 -93.4910 87° East 479 551 37,000  Level FlightAware ADS-B
Wed 01:16:08 PM 41.4640 -93.4080 86° East 477 549 37,000  Level FlightAware ADS-B
Wed 01:16:48 PM 41.4680 -93.2920 87° East 474 545 37,000  Level FlightAware ADS-B
Wed 01:17:24 PM 41.4720 -93.1870 87° East 472 543 37,000  Level FlightAware ADS-B
Wed 01:17:58 PM 41.4760 -93.0880 87° East 471 542 37,000  Level FlightAware ADS-B
Wed 01:18:33 PM 41.4790 -92.9880 88° East 470 541 37,000  Level FlightAware ADS-B
Wed 01:19:10 PM 41.4830 -92.8810 87° East 469 540 37,000  Level FlightAware ADS-B
Wed 01:19:57 PM 41.4820 -92.7450 91° East 477 549 37,000  Level FlightAware ADS-B
Wed 01:20:31 PM 41.4740 -92.6460 96° East 479 551 37,000  Level FlightAware ADS-B
Wed 01:21:01 PM 41.4670 -92.5650 97° East 478 550 37,000  Level FlightAware ADS-B
Wed 01:21:42 PM 41.4560 -92.4450 97° East 477 549 37,000  Level FlightAware ADS-B
Wed 01:22:19 PM 41.4460 -92.3310 97° East 477 549 37,000  Level FlightAware ADS-B
Wed 01:22:52 PM 41.4370 -92.2330 97° East 476 548 37,000  Level FlightAware ADS-B
Wed 01:23:27 PM 41.4280 -92.1340 97° East 476 548 37,000  Level FlightAware ADS-B
Wed 01:24:00 PM 41.4200 -92.0440 97° East 476 548 37,000  Level FlightAware ADS-B
Wed 01:24:35 PM 41.4110 -91.9400 97° East 476 548 37,000  Level FlightAware ADS-B
Wed 01:25:19 PM 41.3990 -91.8150 97° East 476 548 37,000  Level FlightAware ADS-B
Wed 01:25:54 PM 41.3890 -91.7050 97° East 476 548 37,000  Level FlightAware ADS-B
Wed 01:26:26 PM 41.3800 -91.6160 98° East 476 548 37,000  Level FlightAware ADS-B
Wed 01:27:01 PM 41.3700 -91.5100 97° East 476 548 37,000  Level FlightAware ADS-B
Wed 01:27:37 PM 41.3610 -91.4100 97° East 476 548 37,000  Level FlightAware ADS-B
Wed 01:28:13 PM 41.3500 -91.3010 98° East 477 549 37,000  Level FlightAware ADS-B
Wed 01:28:50 PM 41.3400 -91.1990 97° East 479 551 37,000  Level FlightAware ADS-B
Wed 01:29:23 PM 41.3300 -91.0990 98° East 480 552 37,000  Level FlightAware ADS-B
Wed 01:29:59 PM 41.3190 -90.9930 98° East 482 555 37,000  Level FlightAware ADS-B
Wed 01:30:38 PM 41.3080 -90.8830 98° East 483 556 37,000  Level FlightAware ADS-B
Wed 01:31:13 PM 41.2970 -90.7750 98° East 483 556 37,000  Level FlightAware ADS-B
Wed 01:31:56 PM 41.2840 -90.6490 98° East 483 556 37,000  Level FlightAware ADS-B
Wed 01:32:34 PM 41.2730 -90.5390 98° East 483 556 37,000  Level FlightAware ADS-B
Wed 01:33:06 PM 41.2630 -90.4470 98° East 482 555 37,000  Level FlightAware ADS-B
Wed 01:33:42 PM 41.2520 -90.3400 98° East 482 555 37,000  Level FlightAware ADS-B
Wed 01:34:14 PM 41.2420 -90.2480 98° East 482 555 37,000  Level FlightAware ADS-B
Wed 01:34:54 PM 41.2290 -90.1310 98° East 481 554 37,000  Level FlightAware ADS-B
Wed 01:35:30 PM 41.2180 -90.0250 98° East 480 552 37,000  Level FlightAware ADS-B
Wed 01:36:02 PM 41.2080 -89.9350 98° East 479 551 37,000  Level FlightAware ADS-B
Wed 01:36:38 PM 41.1960 -89.8270 98° East 478 550 37,000  Level FlightAware ADS-B
Wed 01:37:14 PM 41.1840 -89.7230 99° East 476 548 37,000  Level FlightAware ADS-B
Wed 01:37:46 PM 41.1740 -89.6290 98° East 475 547 37,000  Level FlightAware ADS-B
Wed 01:38:23 PM 41.1620 -89.5270 99° East 473 544 37,000  Level FlightAware ADS-B
Wed 01:38:58 PM 41.1500 -89.4230 99° East 472 543 37,000  Level FlightAware ADS-B
Wed 01:39:34 PM 41.1390 -89.3230 98° East 473 544 37,000  Level FlightAware ADS-B
Wed 01:40:06 PM 41.1280 -89.2330 99° East 473 544 37,000  Level FlightAware ADS-B
Wed 01:40:40 PM 41.1160 -89.1310 99° East 474 545 37,000  Level FlightAware ADS-B
Wed 01:41:15 PM 41.1050 -89.0350 99° East 476 548 37,000  Level FlightAware ADS-B
Wed 01:41:52 PM 41.0930 -88.9320 99° East 477 549 37,000  Level FlightAware ADS-B
Wed 01:42:30 PM 41.0790 -88.8150 99° East 480 552 37,000  Level FlightAware ADS-B
Wed 01:43:02 PM 41.0680 -88.7230 99° East 481 554 37,000  Level FlightAware ADS-B
Wed 01:43:40 PM 41.0550 -88.6170 99° East 482 555 37,000  Level FlightAware ADS-B
Wed 01:44:12 PM 41.0430 -88.5230 100° East 483 556 37,000  Level FlightAware ADS-B
Wed 01:44:48 PM 41.0300 -88.4130 99° East 484 557 37,000  Level FlightAware ADS-B
Wed 01:45:22 PM 41.0170 -88.3140 100° East 484 557 37,000  Level FlightAware ADS-B
Wed 01:45:54 PM 41.0050 -88.2180 99° East 484 557 37,000  Level FlightAware ADS-B
Wed 01:46:34 PM 40.9920 -88.1090 99° East 483 556 37,000  Level FlightAware ADS-B
Wed 01:47:06 PM 40.9800 -88.0160 100° East 483 556 37,000  Level FlightAware ADS-B
Wed 01:47:43 PM 40.9660 -87.9110 100° East 481 554 37,000  Level FlightAware ADS-B
Wed 01:48:17 PM 40.9530 -87.8120 100° East 479 551 37,000  Level FlightAware ADS-B
Wed 01:48:55 PM 40.9390 -87.6990 99° East 478 550 37,000  Level FlightAware ADS-B
Wed 01:49:27 PM 40.9270 -87.6080 100° East 477 549 37,000  Level FlightAware ADS-B
Wed 01:50:03 PM 40.9140 -87.5080 100° East 478 550 37,000  Level FlightAware ADS-B
Wed 01:50:39 PM 40.9000 -87.4010 100° East 481 554 37,000  Level FlightAware ADS-B
Wed 01:51:12 PM 40.8880 -87.3110 100° East 482 555 37,000  Level FlightAware ADS-B
Wed 01:51:47 PM 40.8730 -87.2010 100° East 482 555 37,000  Level FlightAware ADS-B
Wed 01:52:23 PM 40.8590 -87.0970 100° East 481 554 37,000  Level FlightAware ADS-B
Wed 01:52:55 PM 40.8460 -87.0060 101° East 481 554 37,000  Level FlightAware ADS-B
Wed 01:53:31 PM 40.8320 -86.9010 100° East 481 554 37,000  Level FlightAware ADS-B
Wed 01:54:09 PM 40.8170 -86.7920 100° East 483 556 37,000  Level FlightAware ADS-B
Wed 01:54:39 PM 40.8050 -86.7100 101° East 485 558 37,000  Level FlightAware ADS-B
Wed 01:55:17 PM 40.7890 -86.5940 100° East 486 559 37,000  Level FlightAware ADS-B
Wed 01:55:53 PM 40.7740 -86.4880 101° East 486 559 37,000  Level FlightAware ADS-B
Wed 01:56:29 PM 40.7600 -86.3850 100° East 488 562 37,000  Level FlightAware ADS-B
Wed 01:57:05 PM 40.7440 -86.2780 101° East 490 564 37,000  Level FlightAware ADS-B
Wed 01:57:35 PM 40.7320 -86.1890 100° East 491 565 37,000  Level FlightAware ADS-B
Wed 01:58:13 PM 40.7160 -86.0830 101° East 492 566 37,000  Level FlightAware ADS-B
Wed 01:58:45 PM 40.7020 -85.9830 100° East 493 567 37,000  Level FlightAware ADS-B
Wed 01:59:21 PM 40.6860 -85.8770 101° East 495 570 37,000  Level FlightAware ADS-B
Wed 01:59:57 PM 40.6700 -85.7720 101° East 497 572 37,000  Level FlightAware ADS-B
Wed 02:00:33 PM 40.6540 -85.6640 101° East 499 574 37,000  Level FlightAware ADS-B
Wed 02:01:07 PM 40.6390 -85.5630 101° East 501 577 37,000  Level FlightAware ADS-B
Wed 02:01:41 PM 40.6240 -85.4600 101° East 502 578 37,000  Level FlightAware ADS-B
Wed 02:02:18 PM 40.6070 -85.3500 101° East 503 579 37,000  Level FlightAware ADS-B
Wed 02:02:55 PM 40.5900 -85.2390 101° East 502 578 37,000  Level FlightAware ADS-B
Wed 02:03:29 PM 40.5740 -85.1360 102° East 502 578 37,000  Level FlightAware ADS-B
Wed 02:04:01 PM 40.5600 -85.0440 101° East 501 577 37,000  Level FlightAware ADS-B
Wed 02:04:39 PM 40.5430 -84.9320 101° East 500 575 37,000  Level FlightAware ADS-B
Wed 02:05:09 PM 40.5280 -84.8420 102° East 500 575 37,000  Level FlightAware ADS-B
Wed 02:05:45 PM 40.5120 -84.7370 101° East 498 573 37,000  Level FlightAware ADS-B
Wed 02:06:22 PM 40.4940 -84.6240 102° East 496 571 37,000  Level FlightAware ADS-B
Wed 02:06:58 PM 40.4780 -84.5220 102° East 495 570 37,000  Level FlightAware ADS-B
Wed 02:07:34 PM 40.4610 -84.4140 102° East 493 567 37,000  Level FlightAware ADS-B
Wed 02:08:06 PM 40.4450 -84.3210 103° East 489 563 37,000  Level FlightAware ADS-B
Wed 02:08:50 PM 40.4250 -84.1930 102° East 487 560 37,000  Level FlightAware ADS-B
Wed 02:09:26 PM 40.4080 -84.0900 102° East 485 558 37,000  Level FlightAware ADS-B
Wed 02:10:00 PM 40.3920 -83.9910 102° East 487 560 37,000  Level FlightAware ADS-B
Wed 02:10:34 PM 40.3760 -83.8940 102° East 488 562 37,000  Level FlightAware ADS-B
Wed 02:11:25 PM 40.3520 -83.7500 102° East 492 566 37,000  Level FlightAware ADS-B
Wed 02:12:00 PM 40.3340 -83.6450 103° East 494 568 37,000  Level FlightAware ADS-B
Wed 02:12:34 PM 40.3170 -83.5430 102° East 493 567 37,000  Level FlightAware ADS-B
Wed 02:13:11 PM 40.2990 -83.4390 103° East 492 566 37,000  Level FlightAware ADS-B
Wed 02:13:41 PM 40.2840 -83.3510 103° East 492 566 37,000  Level FlightAware ADS-B
Wed 02:14:18 PM 40.2660 -83.2450 103° East 493 567 37,000  Level FlightAware ADS-B
Wed 02:14:54 PM 40.2470 -83.1370 103° East 492 566 37,000  Level FlightAware ADS-B
Wed 02:15:24 PM 40.2320 -83.0510 103° East 491 565 37,000  Level FlightAware ADS-B
Wed 02:15:57 PM 40.2170 -82.9630 103° East 491 565 37,000  Level FlightAware ADS-B
Wed 02:16:40 PM 40.1940 -82.8330 103° East 490 564 37,000  Level FlightAware ADS-B
Wed 02:17:16 PM 40.1760 -82.7320 103° East 490 564 37,000  Level FlightAware ADS-B
Wed 02:17:47 PM 40.1600 -82.6400 103° East 491 565 37,000  Level FlightAware ADS-B
Wed 02:18:23 PM 40.1470 -82.5350 99° East 484 557 37,000  Level FlightAware ADS-B
Wed 02:18:59 PM 40.1400 -82.4300 95° East 485 558 37,000  Level FlightAware ADS-B
Wed 02:19:35 PM 40.1330 -82.3250 95° East 486 559 37,000  Level FlightAware ADS-B
Wed 02:20:05 PM 40.1270 -82.2410 95° East 487 560 37,000  Level FlightAware ADS-B
Wed 02:20:43 PM 40.1190 -82.1290 95° East 488 562 37,000  Level FlightAware ADS-B
Wed 02:21:21 PM 40.1100 -82.0130 96° East 489 563 37,000  Level FlightAware ADS-B
Wed 02:21:57 PM 40.1030 -81.9070 95° East 489 563 37,000  Level FlightAware ADS-B
Wed 02:22:29 PM 40.0960 -81.8210 96° East 490 564 37,000  Level FlightAware ADS-B
Wed 02:23:05 PM 40.0880 -81.7120 95° East 490 564 37,000  Level FlightAware ADS-B
Wed 02:23:39 PM 40.0810 -81.6150 95° East 489 563 37,000  Level FlightAware ADS-B
Wed 02:24:15 PM 40.0720 -81.5050 96° East 489 563 37,000  Level FlightAware ADS-B
Wed 02:24:54 PM 40.0640 -81.3950 95° East 487 560 37,000 -82 Level FlightAware ADS-B
Wed 02:25:28 PM 40.0570 -81.3190 97° East 487 560 36,900 -740 Descending FlightAware ADS-B
Wed 02:26:07 PM 40.0460 -81.1770 96° East 489 563 36,100 -917 Descending FlightAware ADS-B
Wed 02:26:40 PM 40.0410 -81.1140 96° East 492 566 35,800 -818 Descending FlightAware ADS-B
Wed 02:27:13 PM 40.0330 -81.0110 96° East 493 567 35,200 -658 Descending FlightAware ADS-B
Wed 02:27:53 PM 40.0230 -80.8980 97° East 492 566 35,000 -164 Descending FlightAware ADS-B
Wed 02:28:26 PM 40.0150 -80.8120 97° East 494 568 35,000 -273 Level FlightAware ADS-B
Wed 02:28:59 PM 39.9890 -80.6760 104° East 498 573 34,700 -529 Descending FlightAware ADS-B
Wed 02:29:34 PM 39.9750 -80.6060 105° East 502 578 34,400 -806 Descending FlightAware ADS-B
Wed 02:30:06 PM 39.9530 -80.4970 105° East 506 582 33,800 -512 Descending FlightAware ADS-B
Wed 02:30:56 PM 39.9300 -80.3790 104° East 507 583 33,700 -585 Descending FlightAware ADS-B
Wed 02:31:28 PM 39.9000 -80.2330 105° East 508 585 33,000 -618 Descending FlightAware ADS-B
Wed 02:32:04 PM 39.8780 -80.1280 105° East 497 572 33,000  Level FlightAware ADS-B
Wed 02:32:40 PM 39.8570 -80.0250 105° East 506 582 33,000  Level FlightAware ADS-B
Wed 02:33:12 PM 39.8370 -79.9290 105° East 508 585 33,000  Level FlightAware ADS-B
Wed 02:33:50 PM 39.8140 -79.8190 105° East 508 585 33,000  Level FlightAware ADS-B
Wed 02:34:22 PM 39.7950 -79.7230 104° East 508 585 33,000  Level FlightAware ADS-B
Wed 02:35:00 PM 39.7710 -79.6110 106° East 508 585 33,000 -904 Level FlightAware ADS-B
Wed 02:35:35 PM 39.7500 -79.5110 105° East 507 583 31,900 -2,657 Descending FlightAware ADS-B
Wed 02:36:10 PM 39.7280 -79.4060 105° East 510 587 29,900 -3,273 Descending FlightAware ADS-B
Wed 02:36:52 PM 39.7010 -79.2820 106° East 508 585 27,700 -2,921 Descending FlightAware ADS-B
Wed 02:37:26 PM 39.6800 -79.1820 105° East 498 573 26,200 -2,314 Descending FlightAware ADS-B
Wed 02:38:02 PM 39.6580 -79.0810 106° East 480 552 25,000 -1,059 Descending FlightAware ADS-B
Wed 02:38:34 PM 39.6400 -78.9970 106° East 465 535 25,000 -343 Level FlightAware ADS-B
Wed 02:39:12 PM 39.6180 -78.8940 105° East 458 527 24,600 -771 Descending FlightAware ADS-B
Wed 02:39:44 PM 39.6000 -78.8130 106° East 446 513 24,100 -971 Descending FlightAware ADS-B
Wed 02:40:20 PM 39.5810 -78.7230 105° East 449 517 23,500 -1,183 Descending FlightAware ADS-B
Wed 02:40:55 PM 39.5610 -78.6350 106° East 437 503 22,700 -2,028 Descending FlightAware ADS-B
Wed 02:41:31 PM 39.5400 -78.5370 105° East 444 511 21,100 -2,417 Descending FlightAware ADS-B
Wed 02:42:07 PM 39.5200 -78.4460 106° East 441 507 19,800 -2,289 Descending FlightAware ADS-B
Wed 02:42:47 PM 39.4970 -78.3450 106° East 428 493 18,200 -2,338 Descending FlightAware ADS-B
Wed 02:43:24 PM 39.4780 -78.2580 106° East 421 484 16,800 -2,028 Descending FlightAware ADS-B
Wed 02:43:58 PM 39.4640 -78.1740 102° East 407 468 15,800 -1,391 Descending FlightAware ADS-B
Wed 02:44:33 PM 39.4610 -78.0950 93° East 400 460 15,200 -771 Descending FlightAware ADS-B
Wed 02:45:08 PM 39.4590 -78.0080 92° East 396 456 14,900 -429 Descending FlightAware ADS-B
Wed 02:45:43 PM 39.4580 -77.9240 91° East 393 452 14,700 -720 Descending FlightAware ADS-B
Wed 02:46:23 PM 39.4560 -77.8310 92° East 394 453 14,000 -1,040 Descending FlightAware ADS-B
Wed 02:46:58 PM 39.4540 -77.7490 92° East 391 450 13,400 -1,029 Descending FlightAware ADS-B
Wed 02:47:33 PM 39.4530 -77.6680 91° East 391 450 12,800 -1,114 Descending FlightAware ADS-B
Wed 02:48:08 PM 39.4510 -77.5910 92° East 385 443 12,100 -1,167 Descending FlightAware ADS-B
Wed 02:48:45 PM 39.4490 -77.4990 92° East 380 437 11,400 -1,000 Descending FlightAware ADS-B
Wed 02:49:20 PM 39.4470 -77.4220 92° East 377 434 10,900 -417 Descending FlightAware ADS-B
Wed 02:49:57 PM 39.4500 -77.3390 87° East 370 426 10,900  Level FlightAware ADS-B
Wed 02:50:29 PM 39.4590 -77.2680 81° East 369 425 10,900 -429 Level FlightAware ADS-B
Wed 02:51:07 PM 39.4690 -77.1850 81° East 367 422 10,400 -909 Descending FlightAware ADS-B
Wed 02:51:35 PM 39.4760 -77.1260 81° East 362 417 9,900 -1,125 Descending FlightAware ADS-B
Wed 02:51:55 PM 39.4810 -77.0840 81° East 349 402 9,500 -1,135 Descending FlightAware ADS-B
Wed 02:52:12 PM 39.4850 -77.0520 81° East 342 394 9,200 -732 Descending FlightAware ADS-B
Wed 02:52:36 PM 39.4900 -77.0040 82° East 325 374 9,000 -545 Descending FlightAware ADS-B
Wed 02:52:56 PM 39.4940 -76.9710 81° East 314 361 8,800 -1,050 Descending FlightAware ADS-B
Wed 02:53:16 PM 39.4990 -76.9310 81° East 314 361 8,300 -1,317 Descending FlightAware ADS-B
Wed 02:53:37 PM 39.5040 -76.8910 81° East 304 350 7,900 -947 Descending FlightAware ADS-B
Wed 02:53:54 PM 39.5070 -76.8620 82° East 297 342 7,700 -909 Descending FlightAware ADS-B
Wed 02:54:10 PM 39.5100 -76.8340 82° East 293 337 7,400 -1,235 Descending FlightAware ADS-B
Wed 02:54:28 PM 39.5130 -76.8080 81° East 291 335 7,000 -1,371 Descending FlightAware ADS-B
Wed 02:54:45 PM 39.5130 -76.7760 90° East 294 338 6,600 -1,556 Descending FlightAware ADS-B
Wed 02:54:55 PM 39.5070 -76.7560 111° Southeast 290 334 6,300 -1,125 Descending FlightAware ADS-B
Wed 02:55:17 PM 39.4960 -76.7310 120° Southeast 287 330 6,000 -1,286 Descending FlightAware ADS-B
Wed 02:55:37 PM 39.4800 -76.6930 119° Southeast 284 327 5,400 -1,500 Descending FlightAware ADS-B
Wed 02:55:57 PM 39.4670 -76.6630 119° Southeast 283 326 5,000 -714 Descending FlightAware ADS-B
Wed 02:56:19 PM 39.4510 -76.6340 126° Southeast 275 316 4,900 -250 Descending FlightAware ADS-B
Wed 02:56:45 PM 39.4270 -76.6050 137° Southeast 270 311 4,800 -682 Descending FlightAware ADS-B
Wed 02:57:03 PM 39.4100 -76.5850 138° Southeast 277 319 4,400 -1,125 Descending FlightAware ADS-B
Wed 02:57:33 PM 39.3800 -76.5510 139° Southeast 266 306 3,900 -545 Descending FlightAware ADS-B
Wed 02:57:58 PM 39.3560 -76.5240 139° Southeast 263 303 3,900  Level FlightAware ADS-B
Wed 02:58:13 PM 39.3410 -76.5110 146° Southeast 267 307 3,900 -300 Level FlightAware ADS-B
Wed 02:58:18 PM 39.3380 -76.5090 153° Southeast 265 305 3,800 -1,161 Descending FlightAware ADS-B
Wed 02:58:44 PM 39.3150 -76.4970 158° South 268 308 3,300 -556 Descending FlightAware ADS-B
Wed 02:59:12 PM 39.2880 -76.4830 158° South 268 308 3,300 -282 Level FlightAware ADS-B
Wed 03:00:28 PM 39.1870 -76.4530 167° South 2,900 -338 Descending FlightAware ADS-B
Wed 03:01:34 PM 39.1167 -76.4833 167° South 233 268 2,500 -450 Descending Potomac TRACON
Wed 03:02:28 PM 39.0833 -76.5333 229° Southwest 213 245 2,000 -263 Descending Potomac TRACON
Wed 03:03:28 PM 39.0833 -76.5833 270° West 175 201 2,000 -497 Level Potomac TRACON
Wed 03:05:29 PM 39.1500 -76.6500 322° Northwest 153 176 500 -744 Descending Potomac TRACON

Login

Don't have an account? Register now (free) for customized features, flight alerts, and more!